sensor_id;sensor_type;location;lat;lon;timestamp;temperature;humidity
29031;DHT22;16122;50.236;11.734;2023-05-07T00:02:07;17.70;76.60
29031;DHT22;16122;50.236;11.734;2023-05-07T00:04:33;17.70;76.50
29031;DHT22;16122;50.236;11.734;2023-05-07T00:07:02;17.70;76.40
29031;DHT22;16122;50.236;11.734;2023-05-07T00:09:29;17.70;76.30
29031;DHT22;16122;50.236;11.734;2023-05-07T00:11:54;17.70;76.20
29031;DHT22;16122;50.236;11.734;2023-05-07T00:14:20;17.70;76.20
29031;DHT22;16122;50.236;11.734;2023-05-07T00:16:46;17.70;76.10
29031;DHT22;16122;50.236;11.734;2023-05-07T00:19:12;17.70;76.10
29031;DHT22;16122;50.236;11.734;2023-05-07T00:21:38;17.70;76.00
29031;DHT22;16122;50.236;11.734;2023-05-07T00:24:04;17.70;76.00
29031;DHT22;16122;50.236;11.734;2023-05-07T00:26:30;17.70;75.90
29031;DHT22;16122;50.236;11.734;2023-05-07T00:28:56;17.70;75.90
29031;DHT22;16122;50.236;11.734;2023-05-07T00:31:22;17.70;75.80
29031;DHT22;16122;50.236;11.734;2023-05-07T00:33:47;17.70;75.70
29031;DHT22;16122;50.236;11.734;2023-05-07T00:36:13;17.70;75.70
29031;DHT22;16122;50.236;11.734;2023-05-07T00:38:39;17.70;75.70
29031;DHT22;16122;50.236;11.734;2023-05-07T00:41:05;17.70;75.70
29031;DHT22;16122;50.236;11.734;2023-05-07T00:43:31;17.70;75.60
29031;DHT22;16122;50.236;11.734;2023-05-07T00:45:57;17.70;75.60
29031;DHT22;16122;50.236;11.734;2023-05-07T00:48:23;17.60;75.50
29031;DHT22;16122;50.236;11.734;2023-05-07T00:50:50;17.70;76.30
29031;DHT22;16122;50.236;11.734;2023-05-07T00:53:16;17.70;75.50
29031;DHT22;16122;50.236;11.734;2023-05-07T00:55:42;17.60;75.40
29031;DHT22;16122;50.236;11.734;2023-05-07T00:58:08;17.60;75.40
29031;DHT22;16122;50.236;11.734;2023-05-07T01:00:34;17.60;75.30
29031;DHT22;16122;50.236;11.734;2023-05-07T01:03:01;17.60;75.30
29031;DHT22;16122;50.236;11.734;2023-05-07T01:05:28;17.60;75.30
29031;DHT22;16122;50.236;11.734;2023-05-07T01:07:56;17.60;75.20
29031;DHT22;16122;50.236;11.734;2023-05-07T01:10:23;17.60;75.10
29031;DHT22;16122;50.236;11.734;2023-05-07T01:12:50;17.60;75.10
29031;DHT22;16122;50.236;11.734;2023-05-07T01:15:16;17.60;75.00
29031;DHT22;16122;50.236;11.734;2023-05-07T01:17:43;17.60;75.00
29031;DHT22;16122;50.236;11.734;2023-05-07T01:20:18;17.60;75.00
29031;DHT22;16122;50.236;11.734;2023-05-07T01:22:46;17.60;74.90
29031;DHT22;16122;50.236;11.734;2023-05-07T01:25:12;17.60;74.90
29031;DHT22;16122;50.236;11.734;2023-05-07T01:27:44;17.60;74.90
29031;DHT22;16122;50.236;11.734;2023-05-07T01:30:10;17.60;74.90
29031;DHT22;16122;50.236;11.734;2023-05-07T01:32:52;17.60;74.80
29031;DHT22;16122;50.236;11.734;2023-05-07T01:35:22;17.60;74.80
29031;DHT22;16122;50.236;11.734;2023-05-07T01:37:48;17.60;74.70
29031;DHT22;16122;50.236;11.734;2023-05-07T01:40:15;17.60;74.70
29031;DHT22;16122;50.236;11.734;2023-05-07T01:42:43;17.60;74.80
29031;DHT22;16122;50.236;11.734;2023-05-07T01:45:09;17.60;74.60
29031;DHT22;16122;50.236;11.734;2023-05-07T01:47:39;17.50;74.40
29031;DHT22;16122;50.236;11.734;2023-05-07T01:50:06;17.50;74.40
29031;DHT22;16122;50.236;11.734;2023-05-07T01:52:34;17.50;74.40
29031;DHT22;16122;50.236;11.734;2023-05-07T01:55:00;17.50;74.40
29031;DHT22;16122;50.236;11.734;2023-05-07T01:57:26;17.50;74.40
29031;DHT22;16122;50.236;11.734;2023-05-07T01:59:52;17.50;74.30
29031;DHT22;16122;50.236;11.734;2023-05-07T02:02:18;17.50;74.30
29031;DHT22;16122;50.236;11.734;2023-05-07T02:04:44;17.50;74.30
29031;DHT22;16122;50.236;11.734;2023-05-07T02:07:11;17.50;74.30
29031;DHT22;16122;50.236;11.734;2023-05-07T02:09:37;17.50;74.30
29031;DHT22;16122;50.236;11.734;2023-05-07T02:12:03;17.50;74.30
29031;DHT22;16122;50.236;11.734;2023-05-07T02:14:29;17.50;74.20
29031;DHT22;16122;50.236;11.734;2023-05-07T02:16:55;17.50;74.20
29031;DHT22;16122;50.236;11.734;2023-05-07T02:19:20;17.50;74.20
29031;DHT22;16122;50.236;11.734;2023-05-07T02:21:47;17.50;74.20
29031;DHT22;16122;50.236;11.734;2023-05-07T02:24:14;17.50;74.20
29031;DHT22;16122;50.236;11.734;2023-05-07T02:26:40;17.50;74.10
29031;DHT22;16122;50.236;11.734;2023-05-07T02:29:06;17.50;74.10
29031;DHT22;16122;50.236;11.734;2023-05-07T02:31:32;17.40;74.00
29031;DHT22;16122;50.236;11.734;2023-05-07T02:34:01;17.50;74.10
29031;DHT22;16122;50.236;11.734;2023-05-07T02:36:27;17.40;74.00
29031;DHT22;16122;50.236;11.734;2023-05-07T02:39:00;17.40;74.00
29031;DHT22;16122;50.236;11.734;2023-05-07T02:41:27;17.40;74.70
29031;DHT22;16122;50.236;11.734;2023-05-07T02:43:53;17.50;74.00
29031;DHT22;16122;50.236;11.734;2023-05-07T02:46:19;17.50;74.00
29031;DHT22;16122;50.236;11.734;2023-05-07T02:48:50;17.50;74.00
29031;DHT22;16122;50.236;11.734;2023-05-07T02:51:19;17.40;73.90
29031;DHT22;16122;50.236;11.734;2023-05-07T02:53:45;17.40;73.80
29031;DHT22;16122;50.236;11.734;2023-05-07T02:56:11;17.40;73.80
29031;DHT22;16122;50.236;11.734;2023-05-07T02:58:37;17.40;73.80
29031;DHT22;16122;50.236;11.734;2023-05-07T03:01:08;17.40;73.80
29031;DHT22;16122;50.236;11.734;2023-05-07T03:03:50;17.40;73.80
29031;DHT22;16122;50.236;11.734;2023-05-07T03:06:16;17.40;73.80
29031;DHT22;16122;50.236;11.734;2023-05-07T03:08:43;17.40;73.80
29031;DHT22;16122;50.236;11.734;2023-05-07T03:11:09;17.40;73.80
29031;DHT22;16122;50.236;11.734;2023-05-07T03:13:35;17.40;73.80
29031;DHT22;16122;50.236;11.734;2023-05-07T03:16:01;17.40;73.80
29031;DHT22;16122;50.236;11.734;2023-05-07T03:18:27;17.40;73.70
29031;DHT22;16122;50.236;11.734;2023-05-07T03:20:53;17.40;73.70
29031;DHT22;16122;50.236;11.734;2023-05-07T03:23:19;17.40;73.70
29031;DHT22;16122;50.236;11.734;2023-05-07T03:25:45;17.40;73.70
29031;DHT22;16122;50.236;11.734;2023-05-07T03:28:10;17.40;73.70
29031;DHT22;16122;50.236;11.734;2023-05-07T03:30:42;17.30;73.60
29031;DHT22;16122;50.236;11.734;2023-05-07T03:33:08;17.40;73.70
29031;DHT22;16122;50.236;11.734;2023-05-07T03:35:34;17.30;73.60
29031;DHT22;16122;50.236;11.734;2023-05-07T03:38:01;17.30;73.60
29031;DHT22;16122;50.236;11.734;2023-05-07T03:40:29;17.30;73.50
29031;DHT22;16122;50.236;11.734;2023-05-07T03:42:55;17.40;73.60
29031;DHT22;16122;50.236;11.734;2023-05-07T03:45:24;17.40;73.60
29031;DHT22;16122;50.236;11.734;2023-05-07T03:47:58;17.40;73.60
29031;DHT22;16122;50.236;11.734;2023-05-07T03:50:24;17.40;73.50
29031;DHT22;16122;50.236;11.734;2023-05-07T03:52:50;17.30;73.40
29031;DHT22;16122;50.236;11.734;2023-05-07T03:55:19;17.30;73.40
29031;DHT22;16122;50.236;11.734;2023-05-07T03:57:50;17.30;73.40
29031;DHT22;16122;50.236;11.734;2023-05-07T04:00:16;17.30;73.40
29031;DHT22;16122;50.236;11.734;2023-05-07T04:02:48;17.40;73.50
29031;DHT22;16122;50.236;11.734;2023-05-07T04:05:18;17.30;73.40
29031;DHT22;16122;50.236;11.734;2023-05-07T04:07:46;17.30;73.30
29031;DHT22;16122;50.236;11.734;2023-05-07T04:10:16;17.30;73.30
29031;DHT22;16122;50.236;11.734;2023-05-07T04:12:44;17.30;73.30
29031;DHT22;16122;50.236;11.734;2023-05-07T04:15:14;17.30;73.30
29031;DHT22;16122;50.236;11.734;2023-05-07T04:17:40;17.30;73.30
29031;DHT22;16122;50.236;11.734;2023-05-07T04:20:13;17.30;73.30
29031;DHT22;16122;50.236;11.734;2023-05-07T04:22:39;17.30;73.30
29031;DHT22;16122;50.236;11.734;2023-05-07T04:25:06;17.30;73.20
29031;DHT22;16122;50.236;11.734;2023-05-07T04:27:32;17.30;73.20
29031;DHT22;16122;50.236;11.734;2023-05-07T04:29:58;17.30;73.20
29031;DHT22;16122;50.236;11.734;2023-05-07T04:32:27;17.30;73.20
29031;DHT22;16122;50.236;11.734;2023-05-07T04:34:55;17.30;73.20
29031;DHT22;16122;50.236;11.734;2023-05-07T04:37:22;17.30;73.20
29031;DHT22;16122;50.236;11.734;2023-05-07T04:39:48;17.30;73.20
29031;DHT22;16122;50.236;11.734;2023-05-07T04:42:15;17.30;73.10
29031;DHT22;16122;50.236;11.734;2023-05-07T04:44:42;17.30;73.10
29031;DHT22;16122;50.236;11.734;2023-05-07T04:47:08;17.30;73.10
29031;DHT22;16122;50.236;11.734;2023-05-07T04:49:35;17.30;73.10
29031;DHT22;16122;50.236;11.734;2023-05-07T04:52:01;17.30;73.10
29031;DHT22;16122;50.236;11.734;2023-05-07T04:54:27;17.30;73.00
29031;DHT22;16122;50.236;11.734;2023-05-07T04:56:53;17.30;73.40
29031;DHT22;16122;50.236;11.734;2023-05-07T04:59:19;17.30;74.00
29031;DHT22;16122;50.236;11.734;2023-05-07T05:01:45;17.30;74.10
29031;DHT22;16122;50.236;11.734;2023-05-07T05:04:10;17.30;74.30
29031;DHT22;16122;50.236;11.734;2023-05-07T05:06:37;17.30;74.40
29031;DHT22;16122;50.236;11.734;2023-05-07T05:09:03;17.30;74.80
29031;DHT22;16122;50.236;11.734;2023-05-07T05:11:31;17.40;74.40
29031;DHT22;16122;50.236;11.734;2023-05-07T05:13:58;17.30;74.60
29031;DHT22;16122;50.236;11.734;2023-05-07T05:16:24;17.40;74.80
29031;DHT22;16122;50.236;11.734;2023-05-07T05:18:50;17.30;74.80
29031;DHT22;16122;50.236;11.734;2023-05-07T05:21:18;17.40;75.00
29031;DHT22;16122;50.236;11.734;2023-05-07T05:23:47;17.30;74.80
29031;DHT22;16122;50.236;11.734;2023-05-07T05:26:16;17.40;75.00
29031;DHT22;16122;50.236;11.734;2023-05-07T05:28:41;17.40;75.10
29031;DHT22;16122;50.236;11.734;2023-05-07T05:31:07;17.40;75.20
29031;DHT22;16122;50.236;11.734;2023-05-07T05:33:35;17.40;75.20
29031;DHT22;16122;50.236;11.734;2023-05-07T05:36:04;17.40;75.20
29031;DHT22;16122;50.236;11.734;2023-05-07T05:38:30;17.40;75.20
29031;DHT22;16122;50.236;11.734;2023-05-07T05:40:56;17.40;75.20
29031;DHT22;16122;50.236;11.734;2023-05-07T05:43:22;17.40;75.20
29031;DHT22;16122;50.236;11.734;2023-05-07T05:45:49;17.40;75.20
29031;DHT22;16122;50.236;11.734;2023-05-07T05:48:15;17.40;75.20
29031;DHT22;16122;50.236;11.734;2023-05-07T05:50:42;17.40;75.20
29031;DHT22;16122;50.236;11.734;2023-05-07T05:53:08;17.40;75.40
29031;DHT22;16122;50.236;11.734;2023-05-07T05:55:34;17.40;75.20
29031;DHT22;16122;50.236;11.734;2023-05-07T05:58:00;17.40;75.80
29031;DHT22;16122;50.236;11.734;2023-05-07T06:00:28;17.40;75.20
29031;DHT22;16122;50.236;11.734;2023-05-07T06:02:59;17.40;75.30
29031;DHT22;16122;50.236;11.734;2023-05-07T06:05:25;17.40;75.20
29031;DHT22;16122;50.236;11.734;2023-05-07T06:07:53;17.40;75.30
29031;DHT22;16122;50.236;11.734;2023-05-07T06:10:20;17.40;75.40
29031;DHT22;16122;50.236;11.734;2023-05-07T06:12:46;17.40;75.20
29031;DHT22;16122;50.236;11.734;2023-05-07T06:15:12;17.40;75.40
29031;DHT22;16122;50.236;11.734;2023-05-07T06:17:39;17.40;75.20
29031;DHT22;16122;50.236;11.734;2023-05-07T06:20:09;17.40;75.50
29031;DHT22;16122;50.236;11.734;2023-05-07T06:22:35;17.40;75.70
29031;DHT22;16122;50.236;11.734;2023-05-07T06:25:02;17.40;75.60
29031;DHT22;16122;50.236;11.734;2023-05-07T06:27:28;17.40;75.70
29031;DHT22;16122;50.236;11.734;2023-05-07T06:29:54;17.40;75.80
29031;DHT22;16122;50.236;11.734;2023-05-07T06:32:20;17.40;75.80
29031;DHT22;16122;50.236;11.734;2023-05-07T06:34:46;17.40;75.80
29031;DHT22;16122;50.236;11.734;2023-05-07T06:37:13;17.40;76.00
29031;DHT22;16122;50.236;11.734;2023-05-07T06:40:06;17.40;76.00
29031;DHT22;16122;50.236;11.734;2023-05-07T06:42:35;17.40;75.80
29031;DHT22;16122;50.236;11.734;2023-05-07T06:45:19;17.40;75.80
29031;DHT22;16122;50.236;11.734;2023-05-07T06:47:45;17.40;75.50
29031;DHT22;16122;50.236;11.734;2023-05-07T06:50:11;17.40;75.40
29031;DHT22;16122;50.236;11.734;2023-05-07T06:52:37;17.40;75.20
29031;DHT22;16122;50.236;11.734;2023-05-07T06:55:05;17.50;75.40
29031;DHT22;16122;50.236;11.734;2023-05-07T06:57:31;17.40;75.60
29031;DHT22;16122;50.236;11.734;2023-05-07T06:59:57;17.40;75.70
29031;DHT22;16122;50.236;11.734;2023-05-07T07:02:23;17.50;75.80
29031;DHT22;16122;50.236;11.734;2023-05-07T07:04:49;17.50;75.70
29031;DHT22;16122;50.236;11.734;2023-05-07T07:07:16;17.40;75.50
29031;DHT22;16122;50.236;11.734;2023-05-07T07:09:44;17.40;75.50
29031;DHT22;16122;50.236;11.734;2023-05-07T07:12:12;17.50;75.60
29031;DHT22;16122;50.236;11.734;2023-05-07T07:14:39;17.50;75.70
29031;DHT22;16122;50.236;11.734;2023-05-07T07:17:06;17.40;75.70
29031;DHT22;16122;50.236;11.734;2023-05-07T07:19:31;17.40;75.80
29031;DHT22;16122;50.236;11.734;2023-05-07T07:21:58;17.40;75.80
29031;DHT22;16122;50.236;11.734;2023-05-07T07:24:24;17.40;75.80
29031;DHT22;16122;50.236;11.734;2023-05-07T07:26:55;17.40;75.70
29031;DHT22;16122;50.236;11.734;2023-05-07T07:29:22;17.50;75.70
29031;DHT22;16122;50.236;11.734;2023-05-07T07:31:48;17.40;75.50
29031;DHT22;16122;50.236;11.734;2023-05-07T07:34:16;17.40;75.20
29031;DHT22;16122;50.236;11.734;2023-05-07T07:36:42;17.50;75.30
29031;DHT22;16122;50.236;11.734;2023-05-07T07:39:08;17.40;75.40
29031;DHT22;16122;50.236;11.734;2023-05-07T07:41:35;17.50;75.40
29031;DHT22;16122;50.236;11.734;2023-05-07T07:44:02;17.50;75.70
29031;DHT22;16122;50.236;11.734;2023-05-07T07:46:29;17.50;75.60
29031;DHT22;16122;50.236;11.734;2023-05-07T07:48:55;17.50;75.70
29031;DHT22;16122;50.236;11.734;2023-05-07T07:51:23;17.50;75.70
29031;DHT22;16122;50.236;11.734;2023-05-07T07:53:50;17.50;75.40
29031;DHT22;16122;50.236;11.734;2023-05-07T07:56:17;17.50;75.60
29031;DHT22;16122;50.236;11.734;2023-05-07T07:58:43;17.50;75.60
29031;DHT22;16122;50.236;11.734;2023-05-07T08:01:09;17.50;75.50
29031;DHT22;16122;50.236;11.734;2023-05-07T08:03:35;17.50;75.50
29031;DHT22;16122;50.236;11.734;2023-05-07T08:06:01;17.50;75.50
29031;DHT22;16122;50.236;11.734;2023-05-07T08:08:28;17.50;75.50
29031;DHT22;16122;50.236;11.734;2023-05-07T08:10:54;17.50;75.60
29031;DHT22;16122;50.236;11.734;2023-05-07T08:13:28;17.60;75.70
29031;DHT22;16122;50.236;11.734;2023-05-07T08:15:54;17.60;75.70
29031;DHT22;16122;50.236;11.734;2023-05-07T08:18:20;17.50;75.90
29031;DHT22;16122;50.236;11.734;2023-05-07T08:20:46;17.50;75.70
29031;DHT22;16122;50.236;11.734;2023-05-07T08:23:17;17.60;75.40
29031;DHT22;16122;50.236;11.734;2023-05-07T08:25:44;17.60;75.20
29031;DHT22;16122;50.236;11.734;2023-05-07T08:28:10;17.60;75.20
29031;DHT22;16122;50.236;11.734;2023-05-07T08:30:38;17.60;75.20
29031;DHT22;16122;50.236;11.734;2023-05-07T08:33:03;17.60;75.00
29031;DHT22;16122;50.236;11.734;2023-05-07T08:35:29;17.60;75.00
29031;DHT22;16122;50.236;11.734;2023-05-07T08:37:55;17.60;75.00
29031;DHT22;16122;50.236;11.734;2023-05-07T08:40:26;17.60;75.10
29031;DHT22;16122;50.236;11.734;2023-05-07T08:42:53;17.60;75.40
29031;DHT22;16122;50.236;11.734;2023-05-07T08:45:20;17.50;75.30
29031;DHT22;16122;50.236;11.734;2023-05-07T08:47:55;17.60;75.70
29031;DHT22;16122;50.236;11.734;2023-05-07T08:50:25;17.60;75.70
29031;DHT22;16122;50.236;11.734;2023-05-07T08:52:52;17.60;75.70
29031;DHT22;16122;50.236;11.734;2023-05-07T08:55:20;17.60;75.60
29031;DHT22;16122;50.236;11.734;2023-05-07T08:57:46;17.60;75.90
29031;DHT22;16122;50.236;11.734;2023-05-07T09:00:14;17.60;75.90
29031;DHT22;16122;50.236;11.734;2023-05-07T09:02:41;17.60;75.80
29031;DHT22;16122;50.236;11.734;2023-05-07T09:05:09;17.60;75.90
29031;DHT22;16122;50.236;11.734;2023-05-07T09:07:36;17.60;75.90
29031;DHT22;16122;50.236;11.734;2023-05-07T09:10:04;17.60;76.10
29031;DHT22;16122;50.236;11.734;2023-05-07T09:12:31;17.60;76.30
29031;DHT22;16122;50.236;11.734;2023-05-07T09:14:59;17.60;76.10
29031;DHT22;16122;50.236;11.734;2023-05-07T09:17:26;17.60;76.20
29031;DHT22;16122;50.236;11.734;2023-05-07T09:19:52;17.60;76.10
29031;DHT22;16122;50.236;11.734;2023-05-07T09:22:19;17.60;76.20
29031;DHT22;16122;50.236;11.734;2023-05-07T09:24:54;17.60;76.30
29031;DHT22;16122;50.236;11.734;2023-05-07T09:27:24;17.60;76.30
29031;DHT22;16122;50.236;11.734;2023-05-07T09:29:51;17.60;76.10
29031;DHT22;16122;50.236;11.734;2023-05-07T09:32:17;17.60;76.10
29031;DHT22;16122;50.236;11.734;2023-05-07T09:34:43;17.60;76.20
29031;DHT22;16122;50.236;11.734;2023-05-07T09:37:12;17.60;76.30
29031;DHT22;16122;50.236;11.734;2023-05-07T09:39:43;17.60;76.40
29031;DHT22;16122;50.236;11.734;2023-05-07T09:42:10;17.60;76.40
29031;DHT22;16122;50.236;11.734;2023-05-07T09:44:38;17.70;76.40
29031;DHT22;16122;50.236;11.734;2023-05-07T09:47:07;17.60;76.30
29031;DHT22;16122;50.236;11.734;2023-05-07T09:49:42;17.60;76.20
29031;DHT22;16122;50.236;11.734;2023-05-07T09:52:14;17.60;76.20
29031;DHT22;16122;50.236;11.734;2023-05-07T09:54:47;17.70;76.40
29031;DHT22;16122;50.236;11.734;2023-05-07T09:57:19;17.60;76.50
29031;DHT22;16122;50.236;11.734;2023-05-07T09:59:51;17.70;76.40
29031;DHT22;16122;50.236;11.734;2023-05-07T10:02:19;17.70;76.50
29031;DHT22;16122;50.236;11.734;2023-05-07T10:04:50;17.70;76.50
29031;DHT22;16122;50.236;11.734;2023-05-07T10:07:21;17.70;76.60
29031;DHT22;16122;50.236;11.734;2023-05-07T10:09:50;17.70;76.60
29031;DHT22;16122;50.236;11.734;2023-05-07T10:12:30;17.70;76.70
29031;DHT22;16122;50.236;11.734;2023-05-07T10:15:10;17.70;76.90
29031;DHT22;16122;50.236;11.734;2023-05-07T10:17:39;17.70;77.20
29031;DHT22;16122;50.236;11.734;2023-05-07T10:20:08;17.70;77.20
29031;DHT22;16122;50.236;11.734;2023-05-07T10:22:41;17.70;77.60
29031;DHT22;16122;50.236;11.734;2023-05-07T10:25:16;17.70;77.70
29031;DHT22;16122;50.236;11.734;2023-05-07T10:27:44;17.70;77.90
29031;DHT22;16122;50.236;11.734;2023-05-07T10:30:26;17.70;78.00
29031;DHT22;16122;50.236;11.734;2023-05-07T10:33:03;17.70;78.30
29031;DHT22;16122;50.236;11.734;2023-05-07T10:35:41;17.80;78.60
29031;DHT22;16122;50.236;11.734;2023-05-07T10:38:08;17.80;79.10
29031;DHT22;16122;50.236;11.734;2023-05-07T10:40:36;17.80;79.50
29031;DHT22;16122;50.236;11.734;2023-05-07T10:43:04;17.80;79.30
29031;DHT22;16122;50.236;11.734;2023-05-07T10:45:36;17.80;79.40
29031;DHT22;16122;50.236;11.734;2023-05-07T10:48:16;17.80;79.40
29031;DHT22;16122;50.236;11.734;2023-05-07T10:50:48;17.80;79.80
29031;DHT22;16122;50.236;11.734;2023-05-07T10:58:44;17.80;80.30
29031;DHT22;16122;50.236;11.734;2023-05-07T11:01:58;17.80;80.40
29031;DHT22;16122;50.236;11.734;2023-05-07T11:04:39;17.80;80.70
29031;DHT22;16122;50.236;11.734;2023-05-07T11:07:26;17.80;80.60
29031;DHT22;16122;50.236;11.734;2023-05-07T11:10:01;17.90;81.00
29031;DHT22;16122;50.236;11.734;2023-05-07T11:12:53;17.80;81.10
29031;DHT22;16122;50.236;11.734;2023-05-07T11:15:35;17.80;81.40
29031;DHT22;16122;50.236;11.734;2023-05-07T11:18:03;17.80;81.10
29031;DHT22;16122;50.236;11.734;2023-05-07T11:21:00;17.80;80.90
29031;DHT22;16122;50.236;11.734;2023-05-07T11:26:19;17.90;80.60
29031;DHT22;16122;50.236;11.734;2023-05-07T11:28:46;17.80;80.50
29031;DHT22;16122;50.236;11.734;2023-05-07T11:31:12;17.80;80.00
29031;DHT22;16122;50.236;11.734;2023-05-07T11:33:39;17.80;79.80
29031;DHT22;16122;50.236;11.734;2023-05-07T11:36:09;17.80;80.10
29031;DHT22;16122;50.236;11.734;2023-05-07T11:38:40;17.90;79.90
29031;DHT22;16122;50.236;11.734;2023-05-07T11:41:07;17.80;79.70
29031;DHT22;16122;50.236;11.734;2023-05-07T11:43:33;17.80;79.60
29031;DHT22;16122;50.236;11.734;2023-05-07T11:46:11;17.80;79.60
29031;DHT22;16122;50.236;11.734;2023-05-07T11:48:37;17.80;79.50
29031;DHT22;16122;50.236;11.734;2023-05-07T11:51:05;17.80;79.30
29031;DHT22;16122;50.236;11.734;2023-05-07T11:53:41;17.80;79.50
29031;DHT22;16122;50.236;11.734;2023-05-07T11:56:15;17.80;79.30
29031;DHT22;16122;50.236;11.734;2023-05-07T11:58:42;17.80;79.30
29031;DHT22;16122;50.236;11.734;2023-05-07T12:01:10;17.80;79.30
29031;DHT22;16122;50.236;11.734;2023-05-07T12:03:37;17.80;79.20
29031;DHT22;16122;50.236;11.734;2023-05-07T12:06:05;17.80;79.10
29031;DHT22;16122;50.236;11.734;2023-05-07T12:08:32;17.80;79.00
29031;DHT22;16122;50.236;11.734;2023-05-07T12:10:57;17.80;79.20
29031;DHT22;16122;50.236;11.734;2023-05-07T12:13:25;17.80;79.00
29031;DHT22;16122;50.236;11.734;2023-05-07T12:15:55;17.80;78.90
29031;DHT22;16122;50.236;11.734;2023-05-07T12:18:23;17.90;79.10
29031;DHT22;16122;50.236;11.734;2023-05-07T12:20:49;17.90;79.10
29031;DHT22;16122;50.236;11.734;2023-05-07T12:23:16;17.90;79.00
29031;DHT22;16122;50.236;11.734;2023-05-07T12:25:43;17.90;79.20
29031;DHT22;16122;50.236;11.734;2023-05-07T12:28:16;17.90;80.00
29031;DHT22;16122;50.236;11.734;2023-05-07T12:30:43;17.90;79.00
29031;DHT22;16122;50.236;11.734;2023-05-07T12:33:10;17.90;79.30
29031;DHT22;16122;50.236;11.734;2023-05-07T12:35:40;17.90;79.20
29031;DHT22;16122;50.236;11.734;2023-05-07T12:38:12;17.90;79.50
29031;DHT22;16122;50.236;11.734;2023-05-07T12:40:42;17.90;79.30
29031;DHT22;16122;50.236;11.734;2023-05-07T12:43:18;17.90;79.20
29031;DHT22;16122;50.236;11.734;2023-05-07T12:45:49;17.90;79.30
29031;DHT22;16122;50.236;11.734;2023-05-07T12:48:16;17.90;79.70
29031;DHT22;16122;50.236;11.734;2023-05-07T12:50:42;17.90;79.80
29031;DHT22;16122;50.236;11.734;2023-05-07T12:53:10;17.90;79.80
29031;DHT22;16122;50.236;11.734;2023-05-07T12:55:45;17.90;80.10
29031;DHT22;16122;50.236;11.734;2023-05-07T12:58:26;17.90;80.00
29031;DHT22;16122;50.236;11.734;2023-05-07T13:00:53;17.90;80.70
29031;DHT22;16122;50.236;11.734;2023-05-07T13:03:33;17.90;80.20
29031;DHT22;16122;50.236;11.734;2023-05-07T13:06:05;17.90;81.10
29031;DHT22;16122;50.236;11.734;2023-05-07T13:08:32;17.90;81.30
29031;DHT22;16122;50.236;11.734;2023-05-07T13:10:59;17.90;81.50
29031;DHT22;16122;50.236;11.734;2023-05-07T13:13:32;17.90;81.40
29031;DHT22;16122;50.236;11.734;2023-05-07T13:15:58;17.90;81.60
29031;DHT22;16122;50.236;11.734;2023-05-07T13:18:25;17.90;81.20
29031;DHT22;16122;50.236;11.734;2023-05-07T13:20:53;17.90;81.20
29031;DHT22;16122;50.236;11.734;2023-05-07T13:23:19;18.00;81.00
29031;DHT22;16122;50.236;11.734;2023-05-07T13:25:45;17.90;81.10
29031;DHT22;16122;50.236;11.734;2023-05-07T13:28:11;17.90;81.20
29031;DHT22;16122;50.236;11.734;2023-05-07T13:30:37;18.00;80.80
29031;DHT22;16122;50.236;11.734;2023-05-07T13:33:03;17.90;80.80
29031;DHT22;16122;50.236;11.734;2023-05-07T13:35:29;18.00;80.90
29031;DHT22;16122;50.236;11.734;2023-05-07T13:37:55;18.00;81.70
29031;DHT22;16122;50.236;11.734;2023-05-07T13:40:22;17.90;80.90
29031;DHT22;16122;50.236;11.734;2023-05-07T13:42:49;18.00;80.80
29031;DHT22;16122;50.236;11.734;2023-05-07T13:45:15;18.00;80.70
29031;DHT22;16122;50.236;11.734;2023-05-07T13:47:41;18.00;80.70
29031;DHT22;16122;50.236;11.734;2023-05-07T13:50:08;18.00;80.70
29031;DHT22;16122;50.236;11.734;2023-05-07T13:52:34;18.00;80.60
29031;DHT22;16122;50.236;11.734;2023-05-07T13:55:00;18.00;80.50
29031;DHT22;16122;50.236;11.734;2023-05-07T13:57:26;18.00;80.50
29031;DHT22;16122;50.236;11.734;2023-05-07T13:59:52;18.00;80.50
29031;DHT22;16122;50.236;11.734;2023-05-07T14:02:17;18.00;80.40
29031;DHT22;16122;50.236;11.734;2023-05-07T14:04:43;18.00;80.40
29031;DHT22;16122;50.236;11.734;2023-05-07T14:07:10;18.00;80.30
29031;DHT22;16122;50.236;11.734;2023-05-07T14:09:36;18.00;80.20
29031;DHT22;16122;50.236;11.734;2023-05-07T14:12:02;18.00;80.20
29031;DHT22;16122;50.236;11.734;2023-05-07T14:14:28;18.00;80.00
29031;DHT22;16122;50.236;11.734;2023-05-07T14:16:54;18.00;80.10
29031;DHT22;16122;50.236;11.734;2023-05-07T14:19:21;18.00;80.00
29031;DHT22;16122;50.236;11.734;2023-05-07T14:21:48;18.00;80.00
29031;DHT22;16122;50.236;11.734;2023-05-07T14:24:14;18.00;80.00
29031;DHT22;16122;50.236;11.734;2023-05-07T14:26:40;18.00;80.10
29031;DHT22;16122;50.236;11.734;2023-05-07T14:29:07;18.00;79.90
29031;DHT22;16122;50.236;11.734;2023-05-07T14:31:33;18.00;79.80
29031;DHT22;16122;50.236;11.734;2023-05-07T14:33:59;18.00;79.80
29031;DHT22;16122;50.236;11.734;2023-05-07T14:36:25;18.00;79.90
29031;DHT22;16122;50.236;11.734;2023-05-07T14:38:52;18.00;79.90
29031;DHT22;16122;50.236;11.734;2023-05-07T14:41:20;18.00;79.70
29031;DHT22;16122;50.236;11.734;2023-05-07T14:43:47;18.00;79.60
29031;DHT22;16122;50.236;11.734;2023-05-07T14:46:18;18.00;79.60
29031;DHT22;16122;50.236;11.734;2023-05-07T14:48:45;18.00;79.80
29031;DHT22;16122;50.236;11.734;2023-05-07T14:51:14;18.00;79.50
29031;DHT22;16122;50.236;11.734;2023-05-07T14:53:44;18.00;79.80
29031;DHT22;16122;50.236;11.734;2023-05-07T14:56:10;18.00;79.50
29031;DHT22;16122;50.236;11.734;2023-05-07T14:58:35;18.00;79.50
29031;DHT22;16122;50.236;11.734;2023-05-07T15:01:03;18.00;79.40
29031;DHT22;16122;50.236;11.734;2023-05-07T15:03:28;18.00;79.50
29031;DHT22;16122;50.236;11.734;2023-05-07T15:05:55;18.10;79.40
29031;DHT22;16122;50.236;11.734;2023-05-07T15:08:21;18.00;79.20
29031;DHT22;16122;50.236;11.734;2023-05-07T15:10:46;18.00;79.20
29031;DHT22;16122;50.236;11.734;2023-05-07T15:13:13;18.00;79.20
29031;DHT22;16122;50.236;11.734;2023-05-07T15:15:39;18.00;79.30
29031;DHT22;16122;50.236;11.734;2023-05-07T15:18:05;18.10;79.20
29031;DHT22;16122;50.236;11.734;2023-05-07T15:20:31;18.10;79.10
29031;DHT22;16122;50.236;11.734;2023-05-07T15:22:57;18.10;79.10
29031;DHT22;16122;50.236;11.734;2023-05-07T15:25:23;18.10;79.10
29031;DHT22;16122;50.236;11.734;2023-05-07T15:27:49;18.10;79.00
29031;DHT22;16122;50.236;11.734;2023-05-07T15:30:15;18.10;79.10